createdAt,value
2016-04-12T14:00:09.863Z,995.53
2016-04-12T14:01:09.820Z,995.57
2016-04-12T14:02:09.837Z,995.53
2016-04-12T14:03:09.856Z,995.46
2016-04-12T14:04:09.906Z,995.49
2016-04-12T14:05:09.893Z,995.53
2016-04-12T14:06:09.912Z,995.5
2016-04-12T14:07:09.944Z,995.48
2016-04-12T14:08:09.947Z,995.5
2016-04-12T14:09:09.966Z,995.49
2016-04-12T14:10:10.000Z,995.47
2016-04-12T14:11:10.065Z,995.47
2016-04-12T14:12:10.084Z,995.43
2016-04-12T14:13:10.055Z,995.46
2016-04-12T14:14:10.073Z,995.44
2016-04-12T14:15:10.247Z,995.44
2016-04-12T14:16:10.110Z,995.43
2016-04-12T14:17:10.143Z,995.39
2016-04-12T14:18:10.161Z,995.37
2016-04-12T14:19:10.524Z,995.37
2016-04-12T14:20:10.245Z,995.39
2016-04-12T14:21:10.217Z,995.38
2016-04-12T14:22:10.297Z,995.36
2016-04-12T14:23:10.363Z,995.36
2016-04-12T14:24:10.382Z,995.35
2016-04-12T14:25:10.321Z,995.39
2016-04-12T14:26:10.371Z,995.38
2016-04-12T14:27:10.343Z,995.38
2016-04-12T14:28:10.423Z,995.34
2016-04-12T14:29:10.396Z,995.41
2016-04-12T14:30:10.460Z,995.39
2016-04-12T14:31:10.416Z,995.35
2016-04-12T14:32:10.435Z,995.41
2016-04-12T14:33:10.515Z,995.36
2016-04-12T14:34:10.627Z,995.4
2016-04-12T14:35:10.504Z,995.44
2016-04-12T14:36:10.523Z,995.39
2016-04-12T14:37:10.556Z,995.39
2016-04-12T14:38:10.762Z,995.33
2016-04-12T14:39:10.843Z,995.34
2016-04-12T14:40:10.612Z,995.27
2016-04-12T14:41:10.631Z,995.23
2016-04-12T14:42:10.648Z,995.22
2016-04-12T14:43:10.667Z,995.22
2016-04-12T14:44:10.685Z,995.28
2016-04-12T14:45:10.703Z,995.3
2016-04-12T14:46:10.722Z,995.3
2016-04-12T14:47:10.755Z,995.27
2016-04-12T14:48:10.774Z,995.25
2016-04-12T14:49:10.808Z,995.19
2016-04-12T14:50:10.872Z,995.17
2016-04-12T14:51:10.922Z,995.17
2016-04-12T14:52:10.957Z,995.12
2016-04-12T14:53:10.928Z,995.18
2016-04-12T14:54:10.899Z,995.14
2016-04-12T14:55:10.918Z,995.13
2016-04-12T14:56:10.982Z,995.14
2016-04-12T14:57:10.954Z,995.13
2016-04-12T14:58:11.019Z,995.14
2016-04-12T14:59:11.007Z,995.21
2016-04-12T15:00:11.010Z,995.12
2016-04-12T15:01:11.107Z,995.14
2016-04-12T15:02:11.093Z,995.19
2016-04-12T15:03:11.377Z,995.11
2016-04-12T15:04:11.192Z,995.13
2016-04-12T15:05:11.226Z,995.15
2016-04-12T15:06:11.135Z,995.11
2016-04-12T15:07:11.215Z,995.08
2016-04-12T15:08:11.281Z,995.08
2016-04-12T15:09:11.189Z,995.07
2016-04-12T15:10:11.208Z,995.09
2016-04-12T15:11:11.226Z,995.07
2016-04-12T15:12:11.292Z,995.07
2016-04-12T15:13:11.264Z,995.08
2016-04-12T15:14:11.906Z,995.07
2016-04-12T15:15:11.362Z,995.1
2016-04-12T15:16:11.333Z,995.1
2016-04-12T15:17:11.367Z,995.1
2016-04-12T15:18:11.370Z,995.08
2016-04-12T15:19:11.404Z,995.09
2016-04-12T15:20:11.922Z,995.07
2016-04-12T15:21:11.737Z,995.1
2016-04-12T15:22:11.490Z,995.1
2016-04-12T15:23:11.477Z,995.11
2016-04-12T15:24:11.496Z,995.06
2016-04-12T15:25:11.530Z,995.04
2016-04-12T15:26:11.532Z,995.01
2016-04-12T15:27:13.394Z,995.06
2016-04-12T15:28:11.568Z,995.06
2016-04-12T15:29:11.696Z,995.04
2016-04-12T15:30:11.621Z,995.02
2016-04-12T15:31:11.687Z,995.05
2016-04-12T15:32:11.658Z,995
2016-04-12T15:33:11.677Z,994.98
2016-04-12T15:34:11.757Z,995.05
2016-04-12T15:35:11.729Z,995.01
2016-04-12T15:36:11.746Z,995.03
2016-04-12T15:37:11.859Z,995.01
2016-04-12T15:38:11.784Z,995.04
2016-04-12T15:39:11.801Z,995.07
2016-04-12T15:40:11.836Z,995.01
2016-04-12T15:41:11.838Z,995.02
2016-04-12T15:42:11.856Z,995
2016-04-12T15:43:11.875Z,994.96
2016-04-12T15:44:11.909Z,995.02
2016-04-12T15:45:11.928Z,994.99
2016-04-12T15:46:11.945Z,995.03
2016-04-12T15:47:11.964Z,995.02
2016-04-12T15:48:11.982Z,995.02
2016-04-12T15:49:12.110Z,994.99
2016-04-12T15:50:12.081Z,995.04
2016-04-12T15:51:12.115Z,995.01
2016-04-12T15:52:12.196Z,994.97
2016-04-12T15:53:12.245Z,994.96
2016-04-12T15:54:12.311Z,995.03
2016-04-12T15:55:12.782Z,994.95
2016-04-12T15:56:12.754Z,994.98
2016-04-12T15:57:13.116Z,994.97
2016-04-12T15:58:12.197Z,994.9
2016-04-12T15:59:12.262Z,994.95
2016-04-12T16:00:12.327Z,994.93
2016-04-12T16:01:12.298Z,994.96
2016-04-12T16:02:12.270Z,994.93
2016-04-12T16:03:12.444Z,994.94
2016-04-12T16:04:12.307Z,994.94
2016-04-12T16:05:12.482Z,994.94
2016-04-12T16:06:12.406Z,994.92
2016-04-12T16:07:12.377Z,994.95
2016-04-12T16:08:12.489Z,994.92
2016-04-12T16:09:12.414Z,994.95
2016-04-12T16:10:12.588Z,994.9
2016-04-12T16:11:12.497Z,994.94
2016-04-12T16:12:12.468Z,994.95
2016-04-12T16:13:12.642Z,994.94
2016-04-12T16:14:12.567Z,994.94
2016-04-12T16:15:12.539Z,994.92
2016-04-12T16:16:12.604Z,994.94
2016-04-12T16:17:12.826Z,994.92
2016-04-12T16:18:13.094Z,994.95
2016-04-12T16:19:12.816Z,994.96
2016-04-12T16:20:13.083Z,994.92
2016-04-12T16:21:13.805Z,994.89
2016-04-12T16:22:13.541Z,994.9
2016-04-12T16:23:12.716Z,994.87
2016-04-12T16:24:12.782Z,994.86
2016-04-12T16:25:12.737Z,994.85
2016-04-12T16:26:12.756Z,994.82
2016-04-12T16:27:12.774Z,994.85
2016-04-12T16:28:12.949Z,994.84
2016-04-12T16:29:13.046Z,994.87
2016-04-12T16:30:12.830Z,994.83
2016-04-12T16:31:12.910Z,994.83
2016-04-12T16:32:12.882Z,994.82
2016-04-12T16:33:12.946Z,994.83
2016-04-12T16:34:12.918Z,994.87
2016-04-12T16:35:12.937Z,994.86
2016-04-12T16:36:13.112Z,994.83
2016-04-12T16:37:12.974Z,994.83
2016-04-12T16:38:12.992Z,994.84
2016-04-12T16:39:13.026Z,994.78
2016-04-12T16:40:13.090Z,994.82
2016-04-12T16:41:13.109Z,994.79
2016-04-12T16:42:13.080Z,994.8
2016-04-12T16:43:13.192Z,994.82
2016-04-12T16:44:13.117Z,994.76
2016-04-12T16:45:13.291Z,994.78
2016-04-12T16:46:13.513Z,994.76
2016-04-12T16:47:13.297Z,994.75
2016-04-12T16:48:13.456Z,994.72
2016-04-12T16:49:13.357Z,994.75
2016-04-12T16:50:14.025Z,994.72
2016-04-12T16:51:13.601Z,994.67
2016-04-12T16:52:13.644Z,994.65
2016-04-12T16:53:13.640Z,994.65
2016-04-12T16:54:13.580Z,994.67
2016-04-12T16:55:14.128Z,994.61
2016-04-12T16:56:14.115Z,994.63
2016-04-12T16:57:13.647Z,994.6
2016-04-12T16:58:13.680Z,994.65
2016-04-12T16:59:13.751Z,994.58
2016-04-12T17:00:13.931Z,994.58
2016-04-12T17:01:14.002Z,994.6
2016-04-12T17:02:13.775Z,994.58
2016-04-12T17:03:13.862Z,994.59
2016-04-12T17:04:13.820Z,994.6
2016-04-12T17:05:13.855Z,994.59
2016-04-12T17:06:13.876Z,994.6
2016-04-12T17:07:13.896Z,994.6
2016-04-12T17:08:13.917Z,994.59
2016-04-12T17:09:13.934Z,994.54
2016-04-12T17:10:13.954Z,994.53
2016-04-12T17:11:13.973Z,994.55
2016-04-12T17:12:13.991Z,994.53
2016-04-12T17:13:14.073Z,994.48
2016-04-12T17:14:14.030Z,994.48
2016-04-12T17:15:14.110Z,994.48
2016-04-12T17:16:14.081Z,994.44
2016-04-12T17:17:14.193Z,994.42
2016-04-12T17:18:14.211Z,994.47
2016-04-12T17:19:14.293Z,994.4
2016-04-12T17:20:14.295Z,994.43
2016-04-12T17:21:14.173Z,994.4
2016-04-12T17:22:14.207Z,994.37
2016-04-12T17:23:14.225Z,994.4
2016-04-12T17:24:14.244Z,994.43
2016-04-12T17:25:14.246Z,994.45
2016-04-12T17:26:14.280Z,994.41
2016-04-12T17:27:14.299Z,994.44
2016-04-12T17:28:14.317Z,994.42
2016-04-12T17:29:14.335Z,994.4
2016-04-12T17:30:14.353Z,994.41
2016-04-12T17:31:14.371Z,994.43
2016-04-12T17:32:14.390Z,994.41
2016-04-12T17:33:14.424Z,994.41
2016-04-12T17:34:14.442Z,994.44
2016-04-12T17:35:14.461Z,994.41
2016-04-12T17:36:14.479Z,994.46
2016-04-12T17:37:14.498Z,994.45
2016-04-12T17:38:14.515Z,994.45
2016-04-12T17:39:14.534Z,994.44
2016-04-12T17:40:14.552Z,994.43
2016-04-12T17:41:14.570Z,994.42
2016-04-12T17:42:14.589Z,994.42
2016-04-12T17:43:14.622Z,994.42
2016-04-12T17:44:14.641Z,994.43
2016-04-12T17:45:14.659Z,994.44
2016-04-12T17:46:14.677Z,994.4
2016-04-12T17:47:14.696Z,994.41
2016-04-12T17:48:14.713Z,994.42
2016-04-12T17:49:14.733Z,994.42
2016-04-12T17:50:14.830Z,994.45
2016-04-12T17:51:14.769Z,994.45
2016-04-12T17:52:14.788Z,994.46
2016-04-12T17:53:14.868Z,994.44
2016-04-12T17:54:14.840Z,994.48
2016-04-12T17:55:14.858Z,994.44
2016-04-12T17:56:14.876Z,994.5
2016-04-12T17:57:14.895Z,994.43
2016-04-12T17:58:14.912Z,994.48
2016-04-12T17:59:14.931Z,994.47
2016-04-12T18:00:14.950Z,994.48
2016-04-12T18:01:15.015Z,994.45
2016-04-12T18:02:15.001Z,994.48
2016-04-12T18:03:15.004Z,994.46
2016-04-12T18:04:15.023Z,994.5
2016-04-12T18:05:15.073Z,994.5
2016-04-12T18:06:15.076Z,994.52
2016-04-12T18:07:15.093Z,994.54
2016-04-12T18:08:15.111Z,994.55
2016-04-12T18:09:15.130Z,994.52
2016-04-12T18:10:15.148Z,994.54
2016-04-12T18:11:15.166Z,994.55
2016-04-12T18:12:15.185Z,994.55
2016-04-12T18:13:15.203Z,994.57
2016-04-12T18:14:15.222Z,994.55
2016-04-12T18:15:15.240Z,994.57
2016-04-12T18:16:15.258Z,994.6
2016-04-12T18:17:15.292Z,994.6
2016-04-12T18:18:15.310Z,994.59
2016-04-12T18:19:15.329Z,994.65
2016-04-12T18:20:15.488Z,994.62
2016-04-12T18:21:15.365Z,994.64
2016-04-12T18:22:15.368Z,994.62
2016-04-12T18:23:15.402Z,994.63
2016-04-12T18:24:15.421Z,994.63
2016-04-12T18:25:15.439Z,994.64
2016-04-12T18:26:15.457Z,994.62
2016-04-12T18:27:15.476Z,994.62
2016-04-12T18:28:15.494Z,994.61
2016-04-12T18:29:15.512Z,994.62
2016-04-12T18:30:15.530Z,994.62
2016-04-12T18:31:15.548Z,994.63
2016-04-12T18:32:15.567Z,994.67
2016-04-12T18:33:15.585Z,994.62
2016-04-12T18:34:15.620Z,994.67
2016-04-12T18:35:15.638Z,994.67
2016-04-12T18:36:15.640Z,994.63
2016-04-12T18:37:15.674Z,994.64
2016-04-12T18:38:15.692Z,994.64
2016-04-12T18:39:15.711Z,994.66
2016-04-12T18:40:15.729Z,994.63
2016-04-12T18:41:15.794Z,994.65
2016-04-12T18:42:15.766Z,994.64
2016-04-12T18:43:15.783Z,994.67
2016-04-12T18:44:15.802Z,994.63
2016-04-12T18:45:15.820Z,994.64
2016-04-12T18:46:15.838Z,994.6
2016-04-12T18:47:15.857Z,994.62
2016-04-12T18:48:15.875Z,994.63
2016-04-12T18:49:15.925Z,994.64
2016-04-12T18:50:15.943Z,994.65
2016-04-12T18:51:15.946Z,994.66
2016-04-12T18:52:15.964Z,994.64
2016-04-12T18:53:15.982Z,994.63
2016-04-12T18:54:16.016Z,994.65
2016-04-12T18:55:16.019Z,994.62
2016-04-12T18:56:16.054Z,994.64
2016-04-12T18:57:16.056Z,994.62
2016-04-12T18:58:16.074Z,994.65
2016-04-12T18:59:16.093Z,994.62
2016-04-12T19:00:16.127Z,994.6
2016-04-12T19:01:16.193Z,994.63
2016-04-12T19:02:16.163Z,994.63
2016-04-12T19:03:16.166Z,994.61
2016-04-12T19:04:16.184Z,994.63
2016-04-12T19:05:16.249Z,994.6
2016-04-12T19:06:16.268Z,994.61
2016-04-12T19:07:16.254Z,994.58
2016-04-12T19:08:16.257Z,994.62
2016-04-12T19:09:16.292Z,994.61
2016-04-12T19:10:16.310Z,994.62
2016-04-12T19:11:16.328Z,994.62
2016-04-12T19:12:16.347Z,994.61
2016-04-12T19:13:16.364Z,994.59
2016-04-12T19:14:16.383Z,994.57
2016-04-12T19:15:16.448Z,994.62
2016-04-12T19:16:16.420Z,994.6
2016-04-12T19:17:16.439Z,994.58
2016-04-12T19:18:16.472Z,994.61
2016-04-12T19:19:16.475Z,994.62
2016-04-12T19:20:16.494Z,994.66
2016-04-12T19:21:16.527Z,994.65
2016-04-12T19:22:16.545Z,994.66
2016-04-12T19:23:16.564Z,994.68
2016-04-12T19:24:16.629Z,994.73
2016-04-12T19:25:16.600Z,994.74
2016-04-12T19:26:16.619Z,994.72
2016-04-12T19:27:16.638Z,994.72
2016-04-12T19:28:16.655Z,994.74
2016-04-12T19:29:16.674Z,994.77
2016-04-12T19:30:16.708Z,994.76
2016-04-12T19:31:16.726Z,994.72
2016-04-12T19:32:16.728Z,994.77
2016-04-12T19:33:16.746Z,994.76
2016-04-12T19:34:16.765Z,994.77
2016-04-12T19:35:16.799Z,994.74
2016-04-12T19:36:16.817Z,994.75
2016-04-12T19:37:16.835Z,994.75
2016-04-12T19:38:16.853Z,994.78
2016-04-12T19:39:16.856Z,994.8
2016-04-12T19:40:16.890Z,994.82
2016-04-12T19:41:16.908Z,994.84
2016-04-12T19:42:16.927Z,994.82
2016-04-12T19:43:16.945Z,994.83
2016-04-12T19:44:16.964Z,994.86
2016-04-12T19:45:16.982Z,994.87
2016-04-12T19:46:17.016Z,994.9
2016-04-12T19:47:17.034Z,994.93
2016-04-12T19:48:17.036Z,994.96
2016-04-12T19:49:17.072Z,994.99
2016-04-12T19:50:17.089Z,995
2016-04-12T19:51:17.108Z,995.03
2016-04-12T19:52:17.125Z,995.12
2016-04-12T19:53:17.144Z,995.1
2016-04-12T19:54:17.163Z,995.18
2016-04-12T19:55:17.181Z,995.24
2016-04-12T19:56:17.215Z,995.25
2016-04-12T19:57:17.233Z,995.26
2016-04-12T19:58:17.235Z,995.31
2016-04-12T19:59:17.254Z,995.3
2016-04-12T20:00:17.304Z,995.3
2016-04-12T20:01:17.353Z,995.29
2016-04-12T20:02:17.324Z,995.3
2016-04-12T20:03:17.390Z,995.35
2016-04-12T20:04:17.376Z,995.37
2016-04-12T20:05:17.380Z,995.38
2016-04-12T20:06:17.398Z,995.36
2016-04-12T20:07:17.416Z,995.4
2016-04-12T20:08:17.507Z,995.36
2016-04-12T20:09:17.456Z,995.38
2016-04-12T20:10:17.474Z,995.37
2016-04-12T20:11:17.494Z,995.36
2016-04-12T20:12:17.511Z,995.33
2016-04-12T20:13:17.530Z,995.32
2016-04-12T20:14:17.549Z,995.36
2016-04-12T20:15:17.566Z,995.37
2016-04-12T20:16:17.585Z,995.36
2016-04-12T20:17:17.603Z,995.37
2016-04-12T20:18:17.638Z,995.4
2016-04-12T20:19:17.640Z,995.42
2016-04-12T20:20:17.658Z,995.41
2016-04-12T20:21:17.677Z,995.41
2016-04-12T20:22:17.710Z,995.42
2016-04-12T20:23:17.729Z,995.41
2016-04-12T20:24:17.748Z,995.43
2016-04-12T20:25:17.765Z,995.45
2016-04-12T20:26:17.783Z,995.44
2016-04-12T20:27:17.848Z,995.49
2016-04-12T20:28:17.820Z,995.52
2016-04-12T20:29:17.854Z,995.52
2016-04-12T20:30:17.856Z,995.54
2016-04-12T20:31:17.891Z,995.54
2016-04-12T20:32:17.909Z,995.54
2016-04-12T20:33:17.928Z,995.56
2016-04-12T20:34:17.961Z,995.51
2016-04-12T20:35:17.964Z,995.52
2016-04-12T20:36:17.983Z,995.56
2016-04-12T20:37:18.001Z,995.51
2016-04-12T20:38:18.035Z,995.55
2016-04-12T20:39:18.038Z,995.56
2016-04-12T20:40:18.056Z,995.55
2016-04-12T20:41:18.074Z,995.54
2016-04-12T20:42:18.092Z,995.59
2016-04-12T20:43:18.111Z,995.61
2016-04-12T20:44:18.145Z,995.6
2016-04-12T20:45:18.272Z,995.61
2016-04-12T20:46:18.182Z,995.61
2016-04-12T20:47:18.247Z,995.65
2016-04-12T20:48:18.280Z,995.64
2016-04-12T20:49:18.236Z,995.63
2016-04-12T20:50:18.255Z,995.6
2016-04-12T20:51:18.273Z,995.58
2016-04-12T20:52:18.291Z,995.6
2016-04-12T20:53:18.357Z,995.61
2016-04-12T20:54:18.328Z,995.61
2016-04-12T20:55:18.346Z,995.61
2016-04-12T20:56:18.380Z,995.59
2016-04-12T20:57:18.382Z,995.63
2016-04-12T20:58:18.401Z,995.61
2016-04-12T20:59:18.435Z,995.58
2016-04-12T21:00:18.453Z,995.58
2016-04-12T21:01:18.472Z,995.54
2016-04-12T21:02:18.631Z,995.56
2016-04-12T21:03:18.508Z,995.55
2016-04-12T21:04:18.526Z,995.51
2016-04-12T21:05:18.561Z,995.52
2016-04-12T21:06:18.563Z,995.52
2016-04-12T21:07:18.581Z,995.53
2016-04-12T21:08:18.616Z,995.49
2016-04-12T21:09:18.633Z,995.51
2016-04-12T21:10:18.699Z,995.48
2016-04-12T21:11:18.669Z,995.48
2016-04-12T21:12:18.892Z,995.5
2016-04-12T21:13:18.691Z,995.45
2016-04-12T21:14:18.772Z,995.44
2016-04-12T21:15:19.180Z,995.44
2016-04-12T21:16:18.888Z,995.45
2016-04-12T21:17:18.781Z,995.43
2016-04-12T21:18:18.798Z,995.41
2016-04-12T21:19:18.816Z,995.39
2016-04-12T21:20:18.835Z,995.35
2016-04-12T21:21:18.869Z,995.35
2016-04-12T21:22:18.872Z,995.32
2016-04-12T21:23:18.890Z,995.31
2016-04-12T21:24:18.924Z,995.32
2016-04-12T21:25:18.943Z,995.32
2016-04-12T21:26:18.945Z,995.34
2016-04-12T21:27:18.979Z,995.3
2016-04-12T21:28:18.998Z,995.3
2016-04-12T21:29:19.015Z,995.22
2016-04-12T21:30:19.034Z,995.2
2016-04-12T21:31:19.068Z,995.22
2016-04-12T21:32:19.070Z,995.17
2016-04-12T21:33:19.136Z,995.21
2016-04-12T21:34:19.123Z,995.19
2016-04-12T21:35:19.125Z,995.16
2016-04-12T21:36:19.159Z,995.1
2016-04-12T21:37:19.178Z,995.11
2016-04-12T21:38:19.197Z,995.07
2016-04-12T21:39:19.215Z,995.04
2016-04-12T21:40:19.233Z,995.03
2016-04-12T21:41:19.407Z,995.04
2016-04-12T21:42:19.269Z,995
2016-04-12T21:43:19.303Z,995.03
2016-04-12T21:44:19.306Z,995.01
2016-04-12T21:45:19.341Z,995.03
2016-04-12T21:46:19.343Z,995.09
2016-04-12T21:47:19.361Z,995.08
2016-04-12T21:48:19.395Z,995.03
2016-04-12T21:49:19.414Z,995.06
2016-04-12T21:50:19.432Z,995.05
2016-04-12T21:51:19.450Z,995.02
2016-04-12T21:52:19.515Z,995
2016-04-12T21:53:19.502Z,994.98
2016-04-12T21:54:19.567Z,994.99
2016-04-12T21:55:19.585Z,994.99
2016-04-12T21:56:19.651Z,995
2016-04-12T21:57:19.575Z,994.95
2016-04-12T21:59:18.596Z,994.95
2016-04-12T22:00:18.724Z,994.96
2016-04-12T22:01:20.055Z,994.95
2016-04-12T22:02:18.855Z,994.97
2016-04-12T22:03:18.826Z,994.94
2016-04-12T22:04:18.798Z,994.95
2016-04-12T22:05:19.426Z,994.95
2016-04-12T22:06:19.584Z,994.92
2016-04-12T22:07:20.431Z,994.91
2016-04-12T22:08:19.370Z,994.89
2016-04-12T22:09:19.092Z,994.88
2016-04-12T22:10:18.876Z,994.9
2016-04-12T22:11:18.847Z,994.84
2016-04-12T22:12:19.116Z,994.85
2016-04-12T22:13:19.072Z,994.86
2016-04-12T22:14:19.012Z,994.88
